Terminal Aerodrome Forecast
Issued by NWS

Home | Current Version | Previous Version | Text Only | Print | Product List | Glossary On
Versions: 1 2 3 4 5 6 7 8 9 10 11 12 13 14 15
205
FTUS44 KBMX 061133
TAFEET
TAF
KEET 061133Z 0612/0712 14004KT 5SM -SHRA BR OVC004
     FM061600 26010G17KT P6SM OVC007
     FM062300 32005KT P6SM OVC007=

USA.gov is the U.S. government's official web portal to all federal, state and local government web resources and services.